Time;durP1;ratioP1;P1;durP2;ratioP2;P2;SDS_P1;SDS_P2;PMS_P1;PMS_P2;Temp;Humidity;BMP_temperature;BMP_pressure;BME280_temperature;BME280_humidity;BME280_pressure;Samples;Min_cycle;Max_cycle;Signal;HPM_P1;HPM_P2
2022/10/02 00:00:37;;;;;;;9.10;3.50;;;;;;;-145.49;100.00;62790.56;4955769;28;20046;-73
2022/10/02 00:03:26;;;;;;;3.78;2.20;;;;;;;-145.49;100.00;62790.56;4940130;29;20043;-73
2022/10/02 00:06:02;;;;;;;6.10;2.88;;;;;;;-145.49;100.00;62790.56;4971012;28;20035;-73
2022/10/02 00:08:38;;;;;;;4.07;2.65;;;;;;;-145.49;100.00;62790.56;4954616;29;20478;-73
2022/10/02 00:11:14;;;;;;;2.67;2.30;;;;;;;-145.49;100.00;62790.56;4955967;28;20497;-73
2022/10/02 00:13:48;;;;;;;5.75;3.03;;;;;;;-145.49;100.00;62790.56;4957235;29;20039;-74
2022/10/02 00:16:27;;;;;;;4.20;2.03;;;;;;;-145.49;100.00;62790.56;4955570;29;20047;-73
2022/10/02 00:18:57;;;;;;;6.10;2.28;;;;;;;-145.49;100.00;62790.56;4955279;29;20401;-74
2022/10/02 00:21:51;;;;;;;7.57;3.63;;;;;;;-145.49;100.00;62790.56;4955916;28;20058;-74
2022/10/02 00:24:28;;;;;;;7.47;2.85;;;;;;;-145.49;100.00;62790.56;4956285;29;20035;-75
2022/10/02 00:27:14;;;;;;;4.80;2.80;;;;;;;-145.49;100.00;62790.56;4947080;29;20046;-74
2022/10/02 00:29:42;;;;;;;3.78;2.45;;;;;;;-145.49;100.00;62790.56;4940859;29;20050;-74
2022/10/02 00:32:27;;;;;;;4.65;2.90;;;;;;;-145.49;100.00;62790.56;4956205;28;20046;-74
2022/10/02 00:34:56;;;;;;;6.95;3.30;;;;;;;-145.49;100.00;62790.56;4961233;28;20038;-74
2022/10/02 00:37:28;;;;;;;7.32;2.85;;;;;;;-145.49;100.00;62790.56;4956530;29;20058;-74
2022/10/02 00:39:57;;;;;;;10.20;3.47;;;;;;;-145.49;100.00;62790.56;4965830;28;20062;-74
2022/10/02 00:42:48;;;;;;;8.95;3.08;;;;;;;-145.49;100.00;62790.56;4955255;28;20043;-74
2022/10/02 00:45:23;;;;;;;5.72;3.08;;;;;;;-145.49;100.00;62790.56;4954327;28;20031;-74
2022/10/02 00:48:02;;;;;;;6.50;3.55;;;;;;;-145.49;100.00;62790.56;4956383;29;20038;-74
2022/10/02 00:51:14;;;;;;;10.88;3.70;;;;;;;-145.49;100.00;62790.56;4940662;29;20405;-73
2022/10/02 00:54:03;;;;;;;7.85;3.30;;;;;;;-145.49;100.00;62790.56;4930061;29;20397;-74
2022/10/02 00:56:44;;;;;;;15.50;4.32;;;;;;;-145.49;100.00;62790.56;4947951;29;20514;-74
2022/10/02 00:59:32;;;;;;;7.63;3.55;;;;;;;-145.49;100.00;62790.56;4971203;28;20047;-74
2022/10/02 01:02:32;;;;;;;10.98;4.32;;;;;;;-145.49;100.00;62790.56;4968886;28;20035;-72
2022/10/02 01:05:01;;;;;;;5.50;2.67;;;;;;;-145.49;100.00;62790.56;4951591;28;20043;-74
2022/10/02 01:07:28;;;;;;;5.82;3.25;;;;;;;-145.49;100.00;62790.56;4953734;29;20043;-73
2022/10/02 01:09:54;;;;;;;6.95;3.65;;;;;;;-145.49;100.00;62790.56;4955806;29;20047;-74
2022/10/02 01:12:23;;;;;;;4.43;2.78;;;;;;;-145.49;100.00;62790.56;4967058;28;20035;-74
2022/10/02 01:14:49;;;;;;;5.63;3.20;;;;;;;-145.49;100.00;62790.56;4938920;29;20497;-74
2022/10/02 01:17:28;;;;;;;8.43;3.50;;;;;;;-145.49;100.00;62790.56;4955818;29;20039;-74
2022/10/02 01:19:55;;;;;;;5.13;2.95;;;;;;;-145.49;100.00;62790.56;4961573;29;20039;-74
2022/10/02 01:22:44;;;;;;;9.50;4.57;;;;;;;-145.49;100.00;62790.56;4962511;28;20054;-74
2022/10/02 01:25:12;;;;;;;5.90;4.20;;;;;;;-145.49;100.00;62790.56;4960362;28;20042;-74
2022/10/02 01:27:41;;;;;;;9.00;4.00;;;;;;;-145.49;100.00;62790.56;4943974;29;20122;-74
2022/10/02 01:30:11;;;;;;;5.55;3.42;;;;;;;-145.49;100.00;62790.56;4963330;29;20035;-73
2022/10/02 01:32:42;;;;;;;10.13;3.15;;;;;;;-145.49;100.00;62790.56;4966473;29;20039;-74
2022/10/02 01:35:13;;;;;;;7.70;3.28;;;;;;;-145.49;100.00;62790.56;4946704;29;20401;-73
2022/10/02 01:37:42;;;;;;;13.23;3.33;;;;;;;-145.49;100.00;62790.56;4961442;29;20050;-73
2022/10/02 01:40:21;;;;;;;6.22;3.30;;;;;;;-145.49;100.00;62790.56;4956777;29;20039;-73
2022/10/02 01:42:47;;;;;;;4.82;4.35;;;;;;;-145.49;100.00;62790.56;4953483;28;20047;-74
2022/10/02 01:45:13;;;;;;;5.65;3.42;;;;;;;-145.49;100.00;62790.56;4953400;28;20069;-73
2022/10/02 01:47:54;;;;;;;5.32;2.90;;;;;;;-145.49;100.00;62790.56;4954753;29;20042;-73
2022/10/02 01:50:27;;;;;;;3.53;3.13;;;;;;;-145.49;100.00;62790.56;4955099;29;20397;-74
2022/10/02 01:53:06;;;;;;;9.48;3.53;;;;;;;-145.49;100.00;62790.56;4969107;28;20047;-72
2022/10/02 01:55:48;;;;;;;5.13;2.92;;;;;;;-145.49;100.00;62790.56;4950726;28;20039;-74
2022/10/02 01:58:41;;;;;;;5.03;2.85;;;;;;;-145.49;100.00;62790.56;4937370;29;20039;-74
2022/10/02 02:01:15;;;;;;;5.53;3.15;;;;;;;-145.49;100.00;62790.56;4951012;29;20040;-74
2022/10/02 02:04:26;;;;;;;4.25;2.70;;;;;;;-145.49;100.00;62790.56;4953826;29;20082;-73
2022/10/02 02:07:08;;;;;;;8.40;3.63;;;;;;;-145.49;100.00;62790.56;4935045;29;20039;-73
2022/10/02 02:09:42;;;;;;;5.75;3.20;;;;;;;-145.49;100.00;62790.56;4954913;28;20035;-74
2022/10/02 02:12:14;;;;;;;9.80;2.63;;;;;;;-145.49;100.00;62790.56;4954458;29;20035;-74
2022/10/02 02:14:54;;;;;;;10.05;2.92;;;;;;;-145.49;100.00;62790.56;4953961;28;20509;-75
2022/10/02 02:17:25;;;;;;;8.32;3.15;;;;;;;-145.49;100.00;62790.56;4952323;28;20039;-75
2022/10/02 02:20:06;;;;;;;3.88;3.38;;;;;;;-145.49;100.00;62790.56;4937364;29;20043;-75
2022/10/02 02:22:43;;;;;;;8.87;3.23;;;;;;;-145.49;100.00;62790.56;4953213;29;20039;-74
2022/10/02 02:25:15;;;;;;;7.57;4.00;;;;;;;-145.49;100.00;62790.56;4953378;28;20386;-75
2022/10/02 02:27:47;;;;;;;6.57;3.70;;;;;;;-145.49;100.00;62790.56;4968023;28;20501;-72
2022/10/02 02:30:17;;;;;;;6.57;2.60;;;;;;;-145.49;100.00;62790.56;4954626;29;20039;-74
2022/10/02 02:32:57;;;;;;;7.18;3.20;;;;;;;-145.49;100.00;62790.56;4954317;29;20058;-73
2022/10/02 02:35:39;;;;;;;7.10;3.15;;;;;;;-145.49;100.00;62790.56;4966126;28;20042;-73
2022/10/02 02:38:23;;;;;;;7.35;3.78;;;;;;;-145.49;100.00;62790.56;4948628;28;20035;-73
2022/10/02 02:41:01;;;;;;;8.50;3.63;;;;;;;-145.49;100.00;62790.56;4925055;29;20040;-73
2022/10/02 02:43:51;;;;;;;11.52;3.63;;;;;;;-145.49;100.00;62790.56;4953530;29;20429;-74
2022/10/02 02:46:25;;;;;;;9.27;4.00;;;;;;;-145.49;100.00;62790.56;4936414;29;20043;-73
2022/10/02 02:49:01;;;;;;;10.27;3.53;;;;;;;-145.49;100.00;62790.56;4935598;29;20058;-74
2022/10/02 02:51:37;;;;;;;7.40;2.97;;;;;;;-145.49;100.00;62790.56;4953346;29;20043;-73
2022/10/02 02:54:32;;;;;;;7.07;3.25;;;;;;;-145.49;100.00;62790.56;4953399;29;20501;-73
2022/10/02 02:57:04;;;;;;;6.50;3.38;;;;;;;-145.49;100.00;62790.56;4925724;29;20053;-73
2022/10/02 02:59:33;;;;;;;3.55;2.60;;;;;;;-145.49;100.00;62790.56;4968093;28;20517;-74
2022/10/02 03:01:59;;;;;;;5.35;2.65;;;;;;;-145.49;100.00;62790.56;4952722;29;20478;-73
2022/10/02 03:04:25;;;;;;;7.13;2.88;;;;;;;-145.49;100.00;62790.56;4953359;28;20046;-73
2022/10/02 03:07:00;;;;;;;9.73;4.43;;;;;;;-145.49;100.00;62790.56;4953648;29;20393;-74
2022/10/02 03:09:31;;;;;;;11.07;2.83;;;;;;;-145.49;100.00;62790.56;4952620;28;20401;-72
2022/10/02 03:12:09;;;;;;;9.02;2.65;;;;;;;-145.49;100.00;62790.56;4951910;29;20047;-75
2022/10/02 03:15:05;;;;;;;7.80;3.03;;;;;;;-145.49;100.00;62790.56;4952693;28;20043;-73
2022/10/02 03:18:03;;;;;;;7.95;4.10;;;;;;;-145.49;100.00;62790.56;4953185;29;20039;-73
2022/10/02 03:20:47;;;;;;;6.75;3.33;;;;;;;-145.49;100.00;62790.56;4949095;28;20054;-73
2022/10/02 03:23:53;;;;;;;22.58;3.92;;;;;;;-145.49;100.00;62790.56;4946975;29;20054;-74
2022/10/02 03:26:29;;;;;;;3.75;2.80;;;;;;;-145.49;100.00;62790.56;4967623;28;20024;-73
2022/10/02 03:29:00;;;;;;;6.50;3.63;;;;;;;-145.49;100.00;62790.56;4953674;29;20528;-73
2022/10/02 03:31:29;;;;;;;7.95;2.63;;;;;;;-145.49;100.00;62790.56;4951400;28;20046;-73
2022/10/02 03:33:57;;;;;;;9.68;3.70;;;;;;;-145.49;100.00;62790.56;4952206;29;20031;-74
2022/10/02 03:36:26;;;;;;;5.35;3.45;;;;;;;-145.49;100.00;62790.56;4953168;28;20404;-74
2022/10/02 03:38:59;;;;;;;6.57;2.75;;;;;;;-145.49;100.00;62790.56;4936102;29;20383;-74
2022/10/02 03:41:27;;;;;;;8.98;3.55;;;;;;;-145.49;100.00;62790.56;4950253;28;20040;-74
2022/10/02 03:43:56;;;;;;;8.18;3.17;;;;;;;-145.49;100.00;62790.56;4950687;29;20070;-73
2022/10/02 03:46:22;;;;;;;7.28;3.90;;;;;;;-145.49;100.00;62790.56;4935633;29;20512;-74
2022/10/02 03:48:48;;;;;;;7.18;3.15;;;;;;;-145.49;100.00;62790.56;4952682;29;20035;-74
2022/10/02 03:51:17;;;;;;;5.90;2.83;;;;;;;-145.49;100.00;62790.56;4951468;28;20047;-74
2022/10/02 03:53:45;;;;;;;12.23;2.70;;;;;;;-145.49;100.00;62790.56;4951450;29;20038;-74
2022/10/02 03:56:33;;;;;;;7.22;2.40;;;;;;;-145.49;100.00;62790.56;4952054;28;20401;-73
2022/10/02 03:59:04;;;;;;;7.93;2.92;;;;;;;-145.49;100.00;62790.56;4953218;29;20042;-74
2022/10/02 04:01:40;;;;;;;8.48;3.42;;;;;;;-145.49;100.00;62790.56;4952550;28;20047;-74
2022/10/02 04:04:17;;;;;;;4.85;2.53;;;;;;;-145.49;100.00;62790.56;4928704;29;20043;-73
2022/10/02 04:07:01;;;;;;;6.80;2.58;;;;;;;-145.49;100.00;62790.56;4951625;28;20493;-73
2022/10/02 04:09:43;;;;;;;6.32;2.90;;;;;;;-145.49;100.00;62790.56;4935743;29;20046;-74
2022/10/02 04:12:20;;;;;;;7.20;3.95;;;;;;;-145.49;100.00;62790.56;4952777;28;20036;-73
2022/10/02 04:14:56;;;;;;;8.48;3.67;;;;;;;-145.49;100.00;62790.56;4935492;28;20046;-73
2022/10/02 04:17:30;;;;;;;8.15;4.35;;;;;;;-145.49;100.00;62790.56;4965924;28;20047;-73
2022/10/02 04:20:04;;;;;;;5.43;2.22;;;;;;;-145.49;100.00;62790.56;4953153;29;20047;-75
2022/10/02 04:22:47;;;;;;;9.82;4.28;;;;;;;-145.49;100.00;62790.56;4952576;28;20383;-74
2022/10/02 04:25:19;;;;;;;7.40;3.17;;;;;;;-145.49;100.00;62790.56;4935224;29;20040;-73
2022/10/02 04:28:05;;;;;;;9.57;3.03;;;;;;;-145.49;100.00;62790.56;4934229;29;20039;-73
2022/10/02 04:30:35;;;;;;;4.35;3.50;;;;;;;-145.49;100.00;62790.56;4953139;29;20458;-73
2022/10/02 04:33:12;;;;;;;8.95;3.47;;;;;;;-145.49;100.00;62790.56;4931632;29;20053;-73
2022/10/02 04:35:56;;;;;;;9.75;4.45;;;;;;;-145.49;100.00;62790.56;4936422;29;20043;-73
2022/10/02 04:38:49;;;;;;;5.93;2.53;;;;;;;-145.49;100.00;62790.56;4969542;28;20401;-73
2022/10/02 04:41:33;;;;;;;7.55;2.92;;;;;;;-145.49;100.00;62790.56;4955676;29;20046;-73
2022/10/02 04:44:16;;;;;;;7.05;3.58;;;;;;;-145.49;100.00;62790.56;4955917;28;20038;-73
2022/10/02 04:46:52;;;;;;;3.38;2.33;;;;;;;-145.49;100.00;62790.56;4954839;29;20035;-73
2022/10/02 04:49:37;;;;;;;6.03;2.65;;;;;;;-145.49;100.00;62790.56;4953807;29;20055;-73
2022/10/02 04:52:30;;;;;;;5.70;3.13;;;;;;;-145.49;100.00;62790.56;4948375;29;20512;-74
2022/10/02 04:55:18;;;;;;;8.07;3.08;;;;;;;-145.49;100.00;62790.56;4956040;28;20039;-73
2022/10/02 04:57:53;;;;;;;6.63;3.25;;;;;;;-145.49;100.00;62790.56;4955254;29;20054;-74
2022/10/02 05:00:33;;;;;;;7.80;5.43;;;;;;;-145.49;100.00;62790.56;4956140;29;20039;-74
2022/10/02 05:03:14;;;;;;;5.15;2.58;;;;;;;-145.49;100.00;62790.56;4956455;29;20371;-74
2022/10/02 05:05:58;;;;;;;11.60;4.10;;;;;;;-145.49;100.00;62790.56;4955094;28;20035;-74
2022/10/02 05:08:37;;;;;;;6.57;2.83;;;;;;;-145.49;100.00;62790.56;4954222;29;20043;-74
2022/10/02 05:11:21;;;;;;;12.40;3.85;;;;;;;-145.49;100.00;62790.56;4937563;29;20043;-74
2022/10/02 05:13:51;;;;;;;5.03;2.78;;;;;;;-145.49;100.00;62790.56;4938628;29;20070;-74
2022/10/02 05:16:36;;;;;;;10.00;3.78;;;;;;;-145.49;100.00;62790.56;4953327;28;20037;-74
2022/10/02 05:19:31;;;;;;;10.23;3.88;;;;;;;-145.49;100.00;62790.56;4969621;28;20519;-74
2022/10/02 05:22:22;;;;;;;9.10;3.45;;;;;;;-145.49;100.00;62790.56;4955469;29;20042;-74
2022/10/02 05:25:20;;;;;;;3.47;3.17;;;;;;;-145.49;100.00;62790.56;4955261;28;20042;-74
2022/10/02 05:27:51;;;;;;;12.43;3.17;;;;;;;-145.49;100.00;62790.56;4950914;28;20062;-82
2022/10/02 05:30:20;;;;;;;11.60;3.85;;;;;;;-145.49;100.00;62790.56;4945574;29;20050;-82
2022/10/02 05:33:31;;;;;;;7.13;2.90;;;;;;;-145.49;100.00;62790.56;4936050;29;20042;-81
2022/10/02 05:36:22;;;;;;;7.05;2.53;;;;;;;-145.49;100.00;62790.56;4925417;29;20066;-82
2022/10/02 05:39:18;;;;;;;8.25;3.65;;;;;;;-145.49;100.00;62790.56;4963952;28;20066;-81
2022/10/02 05:42:03;;;;;;;13.68;3.30;;;;;;;-145.49;100.00;62790.56;4941439;29;20050;-82
2022/10/02 05:44:38;;;;;;;9.25;3.00;;;;;;;-145.49;100.00;62790.56;4952074;28;20043;-82
2022/10/02 05:47:14;;;;;;;12.40;3.85;;;;;;;-145.49;100.00;62790.56;4937411;29;20330;-82
2022/10/02 05:50:21;;;;;;;12.88;4.22;;;;;;;-145.49;100.00;62790.56;4951921;28;20431;-83
2022/10/02 05:52:56;;;;;;;5.85;2.80;;;;;;;-145.49;100.00;62790.56;4937218;29;20046;-82
2022/10/02 05:55:54;;;;;;;4.32;2.90;;;;;;;-145.49;100.00;62790.56;4942654;29;20036;-82
2022/10/02 05:58:34;;;;;;;15.82;3.25;;;;;;;-145.49;100.00;62790.56;4936737;29;20031;-81
2022/10/02 06:01:21;;;;;;;7.78;2.67;;;;;;;-145.49;100.00;62790.56;4945991;29;20043;-80
2022/10/02 06:04:12;;;;;;;7.22;5.10;;;;;;;-145.49;100.00;62790.56;4955409;29;20403;-83
2022/10/02 06:06:46;;;;;;;11.90;2.83;;;;;;;-145.49;100.00;62790.56;4967247;28;20039;-83
2022/10/02 06:09:17;;;;;;;6.65;3.45;;;;;;;-145.49;100.00;62790.56;4913601;29;20051;-83
2022/10/02 06:12:00;;;;;;;6.20;2.78;;;;;;;-145.49;100.00;62790.56;4950579;29;20066;-83
2022/10/02 06:14:53;;;;;;;15.50;4.45;;;;;;;-145.49;100.00;62790.56;4950242;29;20044;-82
2022/10/02 06:17:30;;;;;;;8.40;4.32;;;;;;;-145.49;100.00;62790.56;4959176;28;20039;-83
2022/10/02 06:20:13;;;;;;;8.25;3.17;;;;;;;-145.49;100.00;62790.56;4939008;29;20046;-83
2022/10/02 06:22:49;;;;;;;6.03;2.67;;;;;;;-145.49;100.00;62790.56;4954802;29;20043;-82
2022/10/02 06:25:22;;;;;;;6.00;2.60;;;;;;;-145.49;100.00;62790.56;4948804;28;20058;-83
2022/10/02 06:28:26;;;;;;;5.22;3.88;;;;;;;-145.49;100.00;62790.56;4941464;29;20035;-82
2022/10/02 06:31:42;;;;;;;7.50;4.13;;;;;;;-145.49;100.00;62790.56;4956566;28;20050;-82
2022/10/02 06:34:12;;;;;;;7.30;2.53;;;;;;;-145.49;100.00;62790.56;4937738;29;20394;-82
2022/10/02 06:37:22;;;;;;;5.05;2.92;;;;;;;-145.49;100.00;62790.56;4946939;28;20051;-82
2022/10/02 06:40:03;;;;;;;4.15;2.13;;;;;;;-145.49;100.00;62790.56;4928478;29;20056;-82
2022/10/02 06:42:35;;;;;;;4.22;2.97;;;;;;;-145.49;100.00;62790.56;4939825;29;20051;-82
2022/10/02 06:45:24;;;;;;;3.63;2.30;;;;;;;-145.49;100.00;62790.56;4940813;29;20043;-83
2022/10/02 06:48:04;;;;;;;5.57;1.98;;;;;;;-145.49;100.00;62790.56;4936781;29;20035;-82
2022/10/02 06:50:31;;;;;;;3.25;2.25;;;;;;;-145.49;100.00;62790.56;4954185;29;20043;-82
2022/10/02 06:53:07;;;;;;;3.80;2.00;;;;;;;-145.49;100.00;62790.56;4941371;28;20046;-82
2022/10/02 06:55:47;;;;;;;5.20;2.65;;;;;;;-145.49;100.00;62790.56;4948146;29;20398;-82
2022/10/02 06:58:23;;;;;;;3.42;1.67;;;;;;;-145.49;100.00;62790.56;4937000;29;20035;-82
2022/10/02 07:01:00;;;;;;;2.72;2.15;;;;;;;-145.49;100.00;62790.56;4932630;29;20028;-82
2022/10/02 07:04:11;;;;;;;5.22;2.38;;;;;;;-145.49;100.00;62790.56;4941317;29;20525;-82
2022/10/02 07:07:02;;;;;;;2.88;2.13;;;;;;;-145.49;100.00;62790.56;4955531;28;20486;-82
2022/10/02 07:09:39;;;;;;;2.28;1.48;;;;;;;-145.49;100.00;62790.56;4927515;29;20074;-83
2022/10/02 07:12:35;;;;;;;2.25;1.70;;;;;;;-145.49;100.00;62790.56;4945079;28;20038;-82
2022/10/02 07:15:18;;;;;;;3.38;1.75;;;;;;;-145.49;100.00;62790.56;4934501;29;20039;-82
2022/10/02 07:17:47;;;;;;;3.00;2.20;;;;;;;-145.49;100.00;62790.56;4959746;28;20517;-82
2022/10/02 07:20:57;;;;;;;3.70;1.50;;;;;;;-145.49;100.00;62790.56;4933502;29;20048;-82
2022/10/02 07:24:06;;;;;;;2.33;1.10;;;;;;;-145.49;100.00;62790.56;4924088;29;20047;-82
2022/10/02 07:27:06;;;;;;;2.45;1.63;;;;;;;-145.49;100.00;62790.56;4943869;28;20043;-83
2022/10/02 07:29:37;;;;;;;3.08;1.83;;;;;;;-145.49;100.00;62790.56;4933092;29;20031;-82
2022/10/02 07:32:23;;;;;;;3.70;2.33;;;;;;;-145.49;100.00;62790.56;4918176;29;20051;-82
2022/10/02 07:34:59;;;;;;;1.83;1.30;;;;;;;-145.49;100.00;62790.56;4961700;28;20042;-82
2022/10/02 07:37:46;;;;;;;1.58;1.35;;;;;;;-145.49;100.00;62790.56;4932609;29;20043;-83
2022/10/02 07:40:48;;;;;;;1.33;0.93;;;;;;;-145.49;100.00;62790.56;4941890;29;20047;-83
2022/10/02 07:43:46;;;;;;;3.15;1.67;;;;;;;-145.49;100.00;62790.56;4955155;28;20055;-83
2022/10/02 07:46:32;;;;;;;2.42;1.95;;;;;;;-145.49;100.00;62790.56;4934974;29;20035;-82
2022/10/02 07:49:09;;;;;;;2.40;1.17;;;;;;;-145.49;100.00;62790.56;4955109;28;20401;-82
2022/10/02 07:51:49;;;;;;;2.38;1.52;;;;;;;-145.49;100.00;62790.56;4937790;29;20594;-82
2022/10/02 07:54:24;;;;;;;1.45;0.88;;;;;;;-145.49;100.00;62790.56;4958372;28;20036;-82
2022/10/02 07:56:57;;;;;;;3.05;1.52;;;;;;;-145.49;100.00;62790.56;4946066;28;20042;-82
2022/10/02 07:59:25;;;;;;;1.80;1.25;;;;;;;-145.49;100.00;62790.56;4934102;29;20067;-82
2022/10/02 08:01:52;;;;;;;1.85;1.10;;;;;;;-145.49;100.00;62790.56;4931682;29;20039;-82
2022/10/02 08:04:29;;;;;;;1.25;0.75;;;;;;;-145.49;100.00;62790.56;4948873;29;20039;-82
2022/10/02 08:07:02;;;;;;;2.10;1.30;;;;;;;-145.49;100.00;62790.56;4948880;28;20036;-82
2022/10/02 08:09:38;;;;;;;2.80;1.17;;;;;;;-145.49;100.00;62790.56;4963114;28;20043;-82
2022/10/02 08:12:11;;;;;;;0.90;0.73;;;;;;;-145.49;100.00;62790.56;4949417;29;20405;-82
2022/10/02 08:14:41;;;;;;;1.35;0.90;;;;;;;-145.49;100.00;62790.56;4937670;29;20051;-82
2022/10/02 08:17:30;;;;;;;0.82;0.70;;;;;;;-145.49;100.00;62790.56;4949964;29;20035;-82
2022/10/02 08:20:32;;;;;;;0.98;0.80;;;;;;;-145.49;100.00;62790.56;4954113;29;20035;-82
2022/10/02 08:23:20;;;;;;;1.73;0.90;;;;;;;-145.49;100.00;62790.56;4938641;29;20482;-82
2022/10/02 08:26:22;;;;;;;1.20;0.68;;;;;;;-145.49;100.00;62790.56;4946106;29;20409;-83
2022/10/02 08:29:16;;;;;;;1.58;1.10;;;;;;;-145.49;100.00;62790.56;4938422;29;20039;-82
2022/10/02 08:31:49;;;;;;;1.33;1.00;;;;;;;-145.49;100.00;62790.56;4940387;29;20050;-82
2022/10/02 08:34:17;;;;;;;2.28;1.80;;;;;;;-145.49;100.00;62790.56;4946435;29;20232;-82
2022/10/02 08:37:04;;;;;;;2.05;1.85;;;;;;;-145.49;100.00;62790.56;4946605;29;20042;-81
2022/10/02 08:39:39;;;;;;;3.53;2.83;;;;;;;-145.49;100.00;62790.56;4936432;29;20031;-81
2022/10/02 08:42:22;;;;;;;3.70;2.83;;;;;;;-145.49;100.00;62790.56;4931225;29;20040;-82
2022/10/02 08:45:01;;;;;;;2.90;1.95;;;;;;;-145.49;100.00;62790.56;4941567;29;20052;-82
2022/10/02 08:47:49;;;;;;;4.18;3.22;;;;;;;-145.49;100.00;62790.56;4951911;29;20050;-82
2022/10/02 08:50:29;;;;;;;2.80;2.22;;;;;;;-145.49;100.00;62790.56;4952972;28;20036;-82
2022/10/02 08:53:22;;;;;;;5.45;3.40;;;;;;;-145.49;100.00;62790.56;4948582;29;20031;-82
2022/10/02 08:55:57;;;;;;;5.95;3.25;;;;;;;-145.49;100.00;62790.56;4944489;29;20483;-83
2022/10/02 08:59:04;;;;;;;7.90;4.28;;;;;;;-145.49;100.00;62790.56;4963902;28;20050;-82
2022/10/02 09:01:56;;;;;;;3.83;3.17;;;;;;;-145.49;100.00;62790.56;4950152;29;20038;-83
2022/10/02 09:04:39;;;;;;;3.33;2.13;;;;;;;-145.49;100.00;62790.56;4939408;29;20044;-82
2022/10/02 09:07:45;;;;;;;3.50;2.78;;;;;;;-145.49;100.00;62790.56;4942905;29;20043;-82
2022/10/02 09:10:30;;;;;;;1.40;1.30;;;;;;;-145.49;100.00;62790.56;4944432;28;20038;-82
2022/10/02 09:13:37;;;;;;;1.10;0.82;;;;;;;-145.49;100.00;62790.56;4952413;29;20043;-82
2022/10/02 09:16:26;;;;;;;1.48;0.93;;;;;;;-145.49;100.00;62790.56;4956167;28;20035;-83
2022/10/02 09:19:22;;;;;;;1.27;0.88;;;;;;;-145.49;100.00;62790.56;4931636;29;20050;-83
2022/10/02 09:21:58;;;;;;;1.50;1.23;;;;;;;-145.49;100.00;62790.56;4936395;29;20421;-83
2022/10/02 09:24:45;;;;;;;0.88;0.50;;;;;;;-145.49;100.00;62790.56;4940211;29;20047;-83
2022/10/02 09:27:32;;;;;;;1.10;0.98;;;;;;;-145.49;100.00;62790.56;4940686;28;20043;-82
2022/10/02 09:30:18;;;;;;;1.17;0.47;;;;;;;-145.49;100.00;62790.56;4967999;28;20035;-82
2022/10/02 09:32:49;;;;;;;2.83;0.70;;;;;;;-145.49;100.00;62790.56;4946066;29;20043;-83
2022/10/02 09:35:48;;;;;;;0.82;0.70;;;;;;;-145.49;100.00;62790.56;4948900;28;20035;-84
2022/10/02 09:38:52;;;;;;;0.93;0.52;;;;;;;-145.49;100.00;62790.56;4965942;28;20050;-83
2022/10/02 09:41:48;;;;;;;0.55;0.40;;;;;;;-145.49;100.00;62790.56;4938351;29;20042;-84
2022/10/02 09:44:47;;;;;;;2.10;0.60;;;;;;;-145.49;100.00;62790.56;4938105;28;20031;-83
2022/10/02 09:47:53;;;;;;;0.68;0.50;;;;;;;-145.49;100.00;62790.56;4957676;28;20454;-82
2022/10/02 09:50:56;;;;;;;1.75;1.58;;;;;;;-145.49;100.00;62790.56;4957385;28;20119;-83
2022/10/02 09:53:49;;;;;;;1.63;1.52;;;;;;;-145.49;100.00;62790.56;4939331;29;20406;-83
2022/10/02 09:56:55;;;;;;;1.95;0.82;;;;;;;-145.49;100.00;62790.56;4947027;28;20055;-83
2022/10/02 09:59:47;;;;;;;1.42;1.13;;;;;;;-145.49;100.00;62790.56;4933415;29;20039;-83
2022/10/02 10:02:32;;;;;;;1.42;1.10;;;;;;;-145.49;100.00;62790.56;4937695;29;20034;-83
2022/10/02 10:05:09;;;;;;;1.38;1.27;;;;;;;-145.49;100.00;62790.56;4935141;29;20043;-82
2022/10/02 10:07:49;;;;;;;2.75;2.25;;;;;;;-145.49;100.00;62790.56;4937094;29;20070;-82
2022/10/02 10:10:24;;;;;;;2.42;1.52;;;;;;;-145.49;100.00;62790.56;4932547;29;20039;-82
2022/10/02 10:13:23;;;;;;;3.20;1.08;;;;;;;-145.49;100.00;62790.56;4944301;29;20397;-83
2022/10/02 10:16:18;;;;;;;4.60;1.27;;;;;;;-145.49;100.00;62790.56;4950277;28;20059;-83
2022/10/02 10:19:32;;;;;;;1.50;1.40;;;;;;;-145.49;100.00;62790.56;4942565;29;20047;-83
2022/10/02 10:22:38;;;;;;;1.35;1.20;;;;;;;-145.49;100.00;62790.56;4942330;29;20040;-82
2022/10/02 10:25:17;;;;;;;2.00;1.30;;;;;;;-145.49;100.00;62790.56;4953627;28;20027;-83
2022/10/02 10:27:43;;;;;;;1.90;1.42;;;;;;;-145.49;100.00;62790.56;4950874;28;20055;-83
2022/10/02 10:30:24;;;;;;;2.85;1.45;;;;;;;-145.49;100.00;62790.56;4943337;29;20039;-83
2022/10/02 10:33:10;;;;;;;2.22;1.42;;;;;;;-145.49;100.00;62790.56;4941556;28;20050;-83
2022/10/02 10:36:05;;;;;;;;;;;;;;;-145.49;100.00;62790.56;4941371;28;20039;-83
2022/10/02 10:38:51;;;;;;;2.72;2.38;;;;;;;-145.49;100.00;62790.56;4926303;28;20381;-83
2022/10/02 10:41:48;;;;;;;2.72;2.22;;;;;;;-145.49;100.00;62790.56;4930486;29;20038;-83
2022/10/02 10:44:34;;;;;;;3.35;2.05;;;;;;;-145.49;100.00;62790.56;4948749;29;20473;-83
2022/10/02 10:47:37;;;;;;;2.42;1.65;;;;;;;-145.49;100.00;62790.56;4938900;28;20043;-83
2022/10/02 10:50:14;;;;;;;3.28;2.47;;;;;;;-145.49;100.00;62790.56;4917962;29;20390;-83
2022/10/02 10:53:17;;;;;;;2.22;2.03;;;;;;;-145.49;100.00;62790.56;4939213;29;20050;-83
2022/10/02 10:56:18;;;;;;;2.00;1.77;;;;;;;-145.49;100.00;62790.56;4934371;29;20494;-84
2022/10/02 10:59:05;;;;;;;2.10;1.38;;;;;;;-145.49;100.00;62790.56;4927005;29;20056;-84
2022/10/02 11:01:52;;;;;;;1.73;1.52;;;;;;;-145.49;100.00;62790.56;4935946;29;20047;-82
2022/10/02 11:04:23;;;;;;;5.93;3.83;;;;;;;-145.49;100.00;62790.56;4954449;28;20036;-82
2022/10/02 11:07:19;;;;;;;3.47;2.70;;;;;;;-145.49;100.00;62790.56;4967816;28;20043;-80
2022/10/02 11:10:10;;;;;;;2.17;1.48;;;;;;;-145.49;100.00;62790.56;4938559;29;20075;-86
2022/10/02 11:13:00;;;;;;;2.00;1.10;;;;;;;-145.49;100.00;62790.56;4949820;29;20046;-83
2022/10/02 11:15:59;;;;;;;1.70;1.17;;;;;;;-145.49;100.00;62790.56;4931914;29;20044;-83
2022/10/02 11:18:43;;;;;;;1.33;1.05;;;;;;;-145.49;100.00;62790.56;4944279;28;20039;-84
2022/10/02 11:21:33;;;;;;;1.30;1.20;;;;;;;-145.49;100.00;62790.56;4945534;29;20039;-83
2022/10/02 11:24:22;;;;;;;1.70;1.10;;;;;;;-145.49;100.00;62790.56;4946219;29;20031;-84
2022/10/02 11:27:19;;;;;;;2.58;1.45;;;;;;;-145.49;100.00;62790.56;4969912;23;20047;-74
2022/10/02 11:30:07;;;;;;;2.55;1.00;;;;;;;-145.49;100.00;62790.56;4938405;29;20051;-75
2022/10/02 11:32:50;;;;;;;0.52;0.47;;;;;;;-145.49;100.00;62790.56;4962570;28;20031;-76
2022/10/02 11:35:34;;;;;;;1.55;0.90;;;;;;;-145.49;100.00;62790.56;4987864;28;20397;-76
2022/10/02 11:38:37;;;;;;;1.30;0.75;;;;;;;-145.49;100.00;62790.56;4954256;29;20035;-75
2022/10/02 11:41:27;;;;;;;1.45;0.95;;;;;;;-145.49;100.00;62790.56;4936492;29;20039;-75
2022/10/02 11:44:11;;;;;;;1.30;0.70;;;;;;;-145.49;100.00;62790.56;4959935;28;20058;-76
2022/10/02 11:46:43;;;;;;;1.40;0.70;;;;;;;-145.49;100.00;62790.56;4951357;28;20540;-76
2022/10/02 11:49:27;;;;;;;2.05;1.30;;;;;;;-145.49;100.00;62790.56;4936422;29;20056;-76
2022/10/02 11:51:58;;;;;;;1.73;1.50;;;;;;;-145.49;100.00;62790.56;4953063;29;20039;-76
2022/10/02 11:54:44;;;;;;;1.75;0.90;;;;;;;-145.49;100.00;62790.56;4958931;28;20146;-76
2022/10/02 11:57:19;;;;;;;0.82;0.80;;;;;;;-145.49;100.00;62790.56;4946578;29;20050;-76
2022/10/02 12:00:11;;;;;;;1.08;0.80;;;;;;;-145.49;100.00;62790.56;4953076;28;20061;-76
2022/10/02 12:02:46;;;;;;;0.88;0.55;;;;;;;-145.49;100.00;62790.56;4936915;29;20043;-76
2022/10/02 12:05:56;;;;;;;1.05;0.77;;;;;;;-145.49;100.00;62790.56;4960230;28;20042;-75
2022/10/02 12:08:47;;;;;;;1.77;0.85;;;;;;;-145.49;100.00;62790.56;4922926;29;20056;-75
2022/10/02 12:11:32;;;;;;;2.65;1.27;;;;;;;-145.49;100.00;62790.56;4948518;29;20035;-76
2022/10/02 12:14:24;;;;;;;2.25;0.57;;;;;;;-145.49;100.00;62790.56;4951911;28;20042;-76
2022/10/02 12:17:09;;;;;;;1.17;0.98;;;;;;;-145.49;100.00;62790.56;4961363;28;20043;-76
2022/10/02 12:19:39;;;;;;;0.63;0.50;;;;;;;-145.49;100.00;62790.56;4953110;29;20043;-76